Time;durP1;ratioP1;P1;durP2;ratioP2;P2;SDS_P1;SDS_P2;PMS_P1;PMS_P2;Temp;Humidity;BMP_temperature;BMP_pressure;BME280_temperature;BME280_humidity;BME280_pressure;Samples;Min_cycle;Max_cycle;Signal;HPM_P1;HPM_P2
2023/04/21 00:00:25;;;;;;;8.43;8.23;;;9.90;99.90;;;;;;5125456;28;20240;-81
2023/04/21 00:02:52;;;;;;;8.37;8.17;;;9.90;99.90;;;;;;5125796;28;20296;-80
2023/04/21 00:05:19;;;;;;;8.30;8.10;;;9.90;99.90;;;;;;5123612;28;20689;-80
2023/04/21 00:07:47;;;;;;;8.67;8.47;;;9.80;99.90;;;;;;5123607;28;20225;-81
2023/04/21 00:10:14;;;;;;;8.70;8.50;;;9.80;99.90;;;;;;5123392;28;20263;-80
2023/04/21 00:12:45;;;;;;;8.70;8.50;;;9.80;99.90;;;;;;5124165;28;20243;-81
2023/04/21 00:15:12;;;;;;;8.47;8.27;;;9.80;99.90;;;;;;5125004;28;20243;-81
2023/04/21 00:17:40;;;;;;;8.70;8.50;;;9.80;99.90;;;;;;5123554;28;20235;-81
2023/04/21 00:20:10;;;;;;;8.70;8.50;;;9.70;99.90;;;;;;5123374;27;20237;-81
2023/04/21 00:22:37;;;;;;;8.27;8.07;;;9.70;99.90;;;;;;5123440;27;20275;-81
2023/04/21 00:25:06;;;;;;;8.20;8.00;;;9.70;99.90;;;;;;5123270;28;20232;-79
2023/04/21 00:27:34;;;;;;;8.43;8.23;;;9.70;99.90;;;;;;5122621;28;20240;-79
2023/04/21 00:30:03;;;;;;;8.43;8.23;;;9.70;99.90;;;;;;5121532;28;20237;-79
2023/04/21 00:32:30;;;;;;;8.90;8.70;;;9.70;99.90;;;;;;5123737;28;20311;-79
2023/04/21 00:34:58;;;;;;;8.80;8.60;;;9.50;99.90;;;;;;5123845;28;20228;-79
2023/04/21 00:37:25;;;;;;;8.60;8.40;;;9.50;99.90;;;;;;5125015;28;20282;-79
2023/04/21 00:39:53;;;;;;;8.77;8.57;;;9.40;99.90;;;;;;5124163;28;20244;-79
2023/04/21 00:42:20;;;;;;;8.87;8.67;;;9.40;99.90;;;;;;5123666;27;20228;-79
2023/04/21 00:44:48;;;;;;;8.67;8.47;;;9.40;99.90;;;;;;5124010;28;20256;-79
2023/04/21 00:47:17;;;;;;;8.60;8.40;;;9.30;99.90;;;;;;5123166;28;20225;-79
2023/04/21 00:49:45;;;;;;;8.80;8.60;;;9.30;99.90;;;;;;5123140;28;20240;-79
2023/04/21 00:52:14;;;;;;;8.80;8.60;;;9.20;99.90;;;;;;5116960;28;20240;-79
2023/04/21 00:54:41;;;;;;;8.93;8.73;;;9.20;99.90;;;;;;5116524;28;20237;-79
2023/04/21 00:57:09;;;;;;;8.90;8.70;;;9.20;99.90;;;;;;5117660;28;20228;-79
2023/04/21 00:59:37;;;;;;;8.80;8.60;;;9.20;99.90;;;;;;5117173;28;20247;-79
2023/04/21 01:02:04;;;;;;;8.47;8.27;;;9.20;99.90;;;;;;5118933;28;20271;-79
2023/04/21 01:04:37;;;;;;;8.80;8.60;;;9.20;99.90;;;;;;5119392;28;20240;-79
2023/04/21 01:07:06;;;;;;;8.90;8.70;;;9.20;99.90;;;;;;5120022;28;20229;-79
2023/04/21 01:09:34;;;;;;;8.97;8.77;;;9.20;99.90;;;;;;5121207;28;20240;-79
2023/04/21 01:12:03;;;;;;;8.57;8.37;;;9.20;99.90;;;;;;5121549;28;20237;-80
2023/04/21 01:14:30;;;;;;;8.90;8.70;;;9.20;99.90;;;;;;5121313;28;20236;-80
2023/04/21 01:16:58;;;;;;;8.90;8.70;;;9.10;99.90;;;;;;5123793;28;20224;-80
2023/04/21 01:19:31;;;;;;;8.90;8.70;;;9.10;99.90;;;;;;5125023;28;20262;-80
2023/04/21 01:22:00;;;;;;;8.80;8.60;;;9.00;99.90;;;;;;5125535;28;20233;-80
2023/04/21 01:24:37;;;;;;;8.97;8.73;;;8.90;99.90;;;;;;5124953;28;20324;-80
2023/04/21 01:27:09;;;;;;;9.10;8.80;;;8.80;99.90;;;;;;5125028;28;20232;-80
2023/04/21 01:29:37;;;;;;;9.23;8.93;;;8.80;99.90;;;;;;5124116;27;20336;-79
2023/04/21 01:32:07;;;;;;;9.40;9.10;;;8.80;99.90;;;;;;5125042;28;20247;-79
2023/04/21 01:34:35;;;;;;;9.70;9.40;;;8.70;99.90;;;;;;5125141;28;20264;-80
2023/04/21 01:37:04;;;;;;;9.40;9.10;;;8.70;99.90;;;;;;5125245;27;20239;-80
2023/04/21 01:39:31;;;;;;;9.27;8.97;;;8.60;99.90;;;;;;5124328;28;20248;-80
2023/04/21 01:41:59;;;;;;;8.80;8.60;;;8.50;99.90;;;;;;5125153;28;20225;-80
2023/04/21 01:44:27;;;;;;;8.70;8.50;;;8.50;99.90;;;;;;5124456;27;20233;-80
2023/04/21 01:46:54;;;;;;;9.37;9.07;;;8.40;99.90;;;;;;5124496;28;20328;-79
2023/04/21 01:49:22;;;;;;;9.10;8.80;;;8.30;99.90;;;;;;5124228;28;20233;-80
2023/04/21 01:51:49;;;;;;;8.93;8.73;;;8.30;99.90;;;;;;5124919;28;20732;-80
2023/04/21 01:54:18;;;;;;;8.80;8.60;;;8.30;99.90;;;;;;5124741;27;20235;-80
2023/04/21 01:56:46;;;;;;;9.17;8.87;;;8.30;99.90;;;;;;5124007;27;20221;-80
2023/04/21 01:59:13;;;;;;;8.57;8.37;;;8.30;99.90;;;;;;5125853;28;20244;-80
2023/04/21 02:01:40;;;;;;;8.77;8.57;;;8.20;99.90;;;;;;5126279;27;20236;-80
2023/04/21 02:04:08;;;;;;;8.27;8.07;;;8.20;99.90;;;;;;5125302;28;20232;-80
2023/04/21 02:06:35;;;;;;;8.47;8.27;;;8.20;99.90;;;;;;5125489;27;20223;-79
2023/04/21 02:09:03;;;;;;;8.50;8.30;;;8.20;99.90;;;;;;5126294;28;20331;-81
2023/04/21 02:11:32;;;;;;;8.80;8.60;;;8.20;99.90;;;;;;5128642;28;20239;-79
2023/04/21 02:13:59;;;;;;;8.67;8.47;;;8.20;99.90;;;;;;5128546;27;20244;-80
2023/04/21 02:16:27;;;;;;;8.80;8.60;;;8.10;99.90;;;;;;5127546;27;20220;-79
2023/04/21 02:18:55;;;;;;;8.67;8.47;;;8.00;99.90;;;;;;5128201;27;20235;-80
2023/04/21 02:21:23;;;;;;;9.03;8.73;;;8.00;99.90;;;;;;5126170;28;20255;-80
2023/04/21 02:23:51;;;;;;;9.20;8.90;;;8.00;99.90;;;;;;5126400;28;20231;-80
2023/04/21 02:26:19;;;;;;;9.07;8.77;;;8.00;99.90;;;;;;5124871;27;20323;-80
2023/04/21 02:28:49;;;;;;;9.20;8.90;;;7.90;99.90;;;;;;5124364;27;20267;-80
2023/04/21 02:31:17;;;;;;;9.10;8.80;;;7.90;99.90;;;;;;5124309;28;20317;-79
2023/04/21 02:33:45;;;;;;;9.07;8.77;;;7.90;99.90;;;;;;5124450;27;20224;-79
2023/04/21 02:36:12;;;;;;;9.10;8.80;;;7.90;99.90;;;;;;5123214;27;20235;-79
2023/04/21 02:38:40;;;;;;;8.50;8.30;;;7.80;99.90;;;;;;5122299;28;20297;-79
2023/04/21 02:41:08;;;;;;;8.40;8.20;;;7.80;99.90;;;;;;5117570;28;20240;-79
2023/04/21 02:43:35;;;;;;;7.90;7.70;;;7.70;99.90;;;;;;5118457;27;20239;-80
2023/04/21 02:46:08;;;;;;;8.00;7.80;;;7.70;99.90;;;;;;5120092;28;20231;-80
2023/04/21 02:48:36;;;;;;;8.10;7.90;;;7.70;99.90;;;;;;5120565;28;20233;-80
2023/04/21 02:51:04;;;;;;;8.00;7.80;;;7.60;99.90;;;;;;5120537;28;20237;-80
2023/04/21 02:53:32;;;;;;;7.90;7.70;;;7.60;99.90;;;;;;5121767;28;20235;-80
2023/04/21 02:56:01;;;;;;;7.97;7.77;;;7.60;99.90;;;;;;5122385;28;20228;-79
2023/04/21 02:58:29;;;;;;;8.10;7.90;;;7.50;99.90;;;;;;5121903;28;20233;-80
2023/04/21 03:00:56;;;;;;;7.97;7.77;;;7.50;99.90;;;;;;5122808;28;20236;-80
2023/04/21 03:03:25;;;;;;;7.90;7.70;;;7.50;99.90;;;;;;5123127;28;20265;-80
2023/04/21 03:05:57;;;;;;;8.10;7.90;;;7.50;99.90;;;;;;5124030;28;20600;-80
2023/04/21 03:08:25;;;;;;;8.03;7.83;;;7.50;99.90;;;;;;5123003;28;20229;-80
2023/04/21 03:10:52;;;;;;;7.60;7.40;;;7.40;99.90;;;;;;5122740;28;20323;-79
2023/04/21 03:13:20;;;;;;;7.57;7.37;;;7.30;99.90;;;;;;5122824;28;20233;-80
2023/04/21 03:15:48;;;;;;;7.70;7.50;;;7.10;99.90;;;;;;5122396;28;20227;-80
2023/04/21 03:18:15;;;;;;;7.63;7.43;;;7.00;99.90;;;;;;5122929;28;20232;-79
2023/04/21 03:20:44;;;;;;;7.60;7.40;;;6.90;99.90;;;;;;5123421;27;20237;-80
2023/04/21 03:23:12;;;;;;;7.80;7.60;;;6.90;99.90;;;;;;5122950;28;20241;-80
2023/04/21 03:25:39;;;;;;;7.93;7.73;;;7.00;99.90;;;;;;5123465;28;20229;-80
2023/04/21 03:28:07;;;;;;;7.90;7.70;;;7.00;99.90;;;;;;5122792;28;20233;-80
2023/04/21 03:30:34;;;;;;;7.40;7.20;;;7.10;99.90;;;;;;5122833;28;20308;-79
2023/04/21 03:33:02;;;;;;;7.50;7.30;;;7.10;99.90;;;;;;5122826;28;20252;-80
2023/04/21 03:35:29;;;;;;;7.50;7.30;;;7.10;99.90;;;;;;5123287;28;20263;-80
2023/04/21 03:37:58;;;;;;;7.77;7.57;;;7.10;99.90;;;;;;5122192;27;20258;-80
2023/04/21 03:40:26;;;;;;;7.70;7.50;;;7.10;99.90;;;;;;5122296;27;20300;-80
2023/04/21 03:42:53;;;;;;;7.63;7.43;;;7.10;99.90;;;;;;5124435;27;20236;-80
2023/04/21 03:45:21;;;;;;;7.70;7.50;;;7.10;99.90;;;;;;5124962;28;20216;-80
2023/04/21 03:47:49;;;;;;;7.80;7.60;;;7.10;99.90;;;;;;5124963;27;20232;-80
2023/04/21 03:50:16;;;;;;;7.70;7.50;;;7.10;99.90;;;;;;5124208;28;20259;-79
2023/04/21 03:52:43;;;;;;;7.70;7.50;;;7.10;99.90;;;;;;5124007;27;20244;-80
2023/04/21 03:55:12;;;;;;;8.07;7.87;;;7.10;99.90;;;;;;5124140;28;20221;-79
2023/04/21 03:57:41;;;;;;;8.37;8.17;;;7.10;99.90;;;;;;5124876;28;20235;-80
2023/04/21 04:00:11;;;;;;;8.50;8.30;;;7.10;99.90;;;;;;5127165;28;20255;-79
2023/04/21 04:02:38;;;;;;;8.70;8.50;;;7.10;99.90;;;;;;5126380;28;20221;-80
2023/04/21 04:05:07;;;;;;;8.70;8.50;;;7.10;99.90;;;;;;5125560;28;20217;-79
2023/04/21 04:07:35;;;;;;;8.43;8.23;;;7.00;99.90;;;;;;5124509;28;20338;-79
2023/04/21 04:10:03;;;;;;;8.80;8.57;;;6.90;99.90;;;;;;5124618;28;20236;-80
2023/04/21 04:12:33;;;;;;;9.07;8.77;;;6.90;99.90;;;;;;5124523;28;20280;-79
2023/04/21 04:15:00;;;;;;;9.13;8.83;;;6.90;99.90;;;;;;5124558;28;20235;-79
2023/04/21 04:17:28;;;;;;;9.20;8.90;;;6.80;99.90;;;;;;5123040;27;20243;-80
2023/04/21 04:19:55;;;;;;;9.20;8.90;;;6.80;99.90;;;;;;5130867;28;20237;-80
2023/04/21 04:22:23;;;;;;;9.10;8.80;;;6.70;99.90;;;;;;5134895;27;20232;-79
2023/04/21 04:24:50;;;;;;;8.50;8.30;;;6.70;99.90;;;;;;5127587;28;20235;-79
2023/04/21 04:27:19;;;;;;;8.43;8.23;;;6.70;99.90;;;;;;5125787;28;20233;-80
2023/04/21 04:29:48;;;;;;;8.47;8.27;;;6.70;99.90;;;;;;5119676;27;20287;-79
2023/04/21 04:32:16;;;;;;;8.33;8.13;;;6.70;99.90;;;;;;5120194;27;20235;-80
2023/04/21 04:34:43;;;;;;;8.40;8.20;;;6.60;99.90;;;;;;5120495;28;20227;-80
2023/04/21 04:37:11;;;;;;;8.50;8.30;;;6.60;99.90;;;;;;5123316;28;20233;-79
2023/04/21 04:39:39;;;;;;;8.50;8.30;;;6.60;99.90;;;;;;5123107;28;20244;-79
2023/04/21 04:42:08;;;;;;;8.43;8.23;;;6.60;99.90;;;;;;5123001;27;20236;-80
2023/04/21 04:44:36;;;;;;;8.30;8.10;;;6.70;99.90;;;;;;5123595;28;20213;-79
2023/04/21 04:47:06;;;;;;;8.00;7.80;;;6.70;99.90;;;;;;5123264;27;20228;-79
2023/04/21 04:49:33;;;;;;;8.00;7.80;;;6.70;99.90;;;;;;5122211;28;20328;-80
2023/04/21 04:52:01;;;;;;;8.20;8.00;;;6.60;99.90;;;;;;5126784;27;20319;-79
2023/04/21 04:54:29;;;;;;;8.00;7.80;;;6.60;99.90;;;;;;5127283;27;20233;-79
2023/04/21 04:56:57;;;;;;;8.00;7.80;;;6.60;99.90;;;;;;5127055;28;20255;-79
2023/04/21 04:59:25;;;;;;;7.70;7.50;;;6.60;99.90;;;;;;5126335;27;20243;-79
2023/04/21 05:01:52;;;;;;;7.90;7.70;;;6.60;99.90;;;;;;5127460;28;20225;-80
2023/04/21 05:04:21;;;;;;;8.20;8.00;;;6.60;99.90;;;;;;5127356;28;20231;-80
2023/04/21 05:06:48;;;;;;;8.27;8.07;;;6.70;99.90;;;;;;5128062;28;20244;-80
2023/04/21 05:09:16;;;;;;;8.30;8.10;;;6.70;99.90;;;;;;5126981;27;20968;-80
2023/04/21 05:11:43;;;;;;;8.47;8.27;;;6.70;99.90;;;;;;5126925;27;20220;-79
2023/04/21 05:14:11;;;;;;;8.00;7.80;;;6.70;99.90;;;;;;5126822;28;20224;-79
2023/04/21 05:16:38;;;;;;;7.93;7.73;;;6.70;99.90;;;;;;5127342;28;20259;-80
2023/04/21 05:19:06;;;;;;;7.70;7.50;;;6.80;99.90;;;;;;5126947;27;20229;-79
2023/04/21 05:21:35;;;;;;;7.40;7.20;;;6.70;99.90;;;;;;5127382;28;20236;-79
2023/04/21 05:24:02;;;;;;;7.77;7.57;;;6.80;99.90;;;;;;5125870;27;20224;-80
2023/04/21 05:26:30;;;;;;;7.80;7.60;;;6.80;99.90;;;;;;5126206;27;20239;-79
2023/04/21 05:28:58;;;;;;;8.00;7.80;;;6.90;99.90;;;;;;5127261;28;20232;-80
2023/04/21 05:31:26;;;;;;;8.27;8.07;;;7.00;99.90;;;;;;5127689;27;20232;-79
2023/04/21 05:33:54;;;;;;;8.23;8.03;;;7.00;99.90;;;;;;5127767;28;20316;-79
2023/04/21 05:36:23;;;;;;;8.50;8.30;;;7.10;99.90;;;;;;5127655;28;20292;-80
2023/04/21 05:38:53;;;;;;;8.30;8.10;;;7.10;99.90;;;;;;5126680;28;20237;-79
2023/04/21 05:41:21;;;;;;;8.23;8.03;;;7.30;99.90;;;;;;5127001;28;20236;-79
2023/04/21 05:43:48;;;;;;;8.57;8.37;;;7.40;99.90;;;;;;5129085;27;20266;-79
2023/04/21 05:46:16;;;;;;;8.33;8.13;;;7.50;99.90;;;;;;5130709;28;20240;-79
2023/04/21 05:48:43;;;;;;;8.40;8.20;;;7.50;99.90;;;;;;5127802;27;20263;-79
2023/04/21 05:51:56;;;;;;;8.27;8.07;;;7.60;99.90;;;;;;5165798;22;20222;-86
2023/04/21 05:55:24;;;;;;;8.10;7.90;;;7.70;99.90;;;;;;5105011;28;20221;-86
2023/04/21 06:02:43;;;;;;;8.30;8.10;;;7.90;99.90;;;;;;5062489;28;20225;-86
2023/04/21 06:05:54;;;;;;;;;;;;;;;;;;;;;
2023/04/21 06:08:54;;;;;;;8.80;8.60;;;8.20;99.90;;;;;;5032588;28;20228;-84
2023/04/21 06:22:57;;;;;;;9.23;8.93;;;8.80;99.90;;;;;;5087694;28;20270;-86
2023/04/21 06:35:29;;;;;;;9.43;9.13;;;9.20;99.90;;;;;;5083441;28;20301;-85
2023/04/21 06:47:29;;;;;;;9.30;9.00;;;9.60;99.90;;;;;;5079938;28;20230;-86
2023/04/21 06:50:27;;;;;;;9.50;9.20;;;9.70;99.90;;;;;;5086781;28;20241;-86
2023/04/21 06:53:37;;;;;;;9.63;9.33;;;9.80;99.90;;;;;;5088999;28;20238;-84
2023/04/21 06:56:13;;;;;;;9.27;8.97;;;10.00;99.90;;;;;;5097210;28;20285;-85
2023/04/21 07:02:10;;;;;;;9.80;9.50;;;10.60;99.90;;;;;;5021780;28;20323;-86
2023/04/21 07:08:25;;;;;;;9.90;9.60;;;11.10;99.90;;;;;;5087228;28;20218;-86
2023/04/21 07:11:05;;;;;;;9.60;9.30;;;11.20;99.90;;;;;;5072892;28;20245;-85
2023/04/21 07:13:36;;;;;;;9.80;9.50;;;11.40;99.90;;;;;;5086617;28;20222;-84
2023/04/21 07:16:19;;;;;;;9.57;9.27;;;11.50;99.90;;;;;;5086178;28;20230;-84
2023/04/21 07:19:26;;;;;;;9.43;9.13;;;11.60;99.90;;;;;;5087009;28;20218;-86
2023/04/21 07:22:02;;;;;;;9.50;9.20;;;11.70;99.90;;;;;;5084925;28;20225;-86
2023/04/21 07:24:56;;;;;;;9.40;9.10;;;11.60;99.90;;;;;;5084782;28;20234;-87
2023/04/21 07:27:51;;;;;;;9.47;9.17;;;11.70;99.90;;;;;;5091694;28;20226;-86
2023/04/21 07:30:32;;;;;;;10.00;9.70;;;11.70;99.90;;;;;;5085520;28;20233;-86
2023/04/21 07:33:32;;;;;;;10.07;9.77;;;11.90;99.90;;;;;;5086291;28;20718;-86
2023/04/21 07:36:51;;;;;;;10.27;9.97;;;12.10;99.90;;;;;;5066490;28;20230;-86
2023/04/21 07:39:32;;;;;;;10.27;9.97;;;12.40;99.90;;;;;;4977851;28;20225;-85
2023/04/21 07:46:02;;;;;;;9.63;9.33;;;12.70;99.90;;;;;;5072193;28;20373;-85
2023/04/21 07:51:39;;;;;;;10.10;9.80;;;13.10;99.90;;;;;;5075689;28;20240;-85
2023/04/21 07:54:12;;;;;;;9.83;9.53;;;13.20;99.90;;;;;;5080125;28;20233;-85
2023/04/21 07:57:40;;;;;;;;;;;;;;;;;;;;;
2023/04/21 08:00:27;;;;;;;10.03;9.73;;;13.20;99.90;;;;;;5070084;28;20816;-85
2023/04/21 08:03:28;;;;;;;10.20;9.90;;;13.10;99.90;;;;;;5085293;28;20407;-85
2023/04/21 08:06:07;;;;;;;9.90;9.60;;;13.20;99.90;;;;;;5080816;28;20225;-85
2023/04/21 08:09:07;;;;;;;9.73;9.43;;;13.30;99.90;;;;;;5086250;28;20245;-85
2023/04/21 08:11:47;;;;;;;9.97;9.67;;;13.50;99.90;;;;;;5073670;28;20233;-85
2023/04/21 08:14:33;;;;;;;10.10;9.80;;;13.80;99.90;;;;;;5080793;28;20252;-86
2023/04/21 08:17:11;;;;;;;9.97;9.67;;;14.00;99.90;;;;;;5080715;28;20230;-86
2023/04/21 08:19:46;;;;;;;9.97;9.67;;;14.30;99.90;;;;;;5075717;28;20222;-85
2023/04/21 08:22:21;;;;;;;10.10;9.80;;;14.40;99.90;;;;;;5092718;28;20260;-85
2023/04/21 08:24:55;;;;;;;10.40;10.10;;;14.40;99.90;;;;;;5089783;28;20234;-85
2023/04/21 08:27:48;;;;;;;10.23;9.93;;;14.40;99.90;;;;;;5083470;28;20296;-86
2023/04/21 08:30:32;;;;;;;10.43;10.13;;;14.40;99.90;;;;;;5082236;28;20228;-85
2023/04/21 08:33:12;;;;;;;10.53;10.23;;;14.20;99.90;;;;;;5081452;28;20806;-86
2023/04/21 08:35:51;;;;;;;10.40;10.10;;;14.30;99.90;;;;;;5083747;28;20226;-86
2023/04/21 08:38:34;;;;;;;10.20;9.90;;;14.40;99.90;;;;;;5082654;28;20233;-85
2023/04/21 08:41:06;;;;;;;10.20;9.90;;;14.60;99.90;;;;;;5082188;28;20230;-86
2023/04/21 08:43:48;;;;;;;10.10;9.80;;;14.70;99.90;;;;;;5082913;28;20234;-85
2023/04/21 08:46:29;;;;;;;10.43;10.13;;;14.90;99.90;;;;;;5082454;28;20237;-85
2023/04/21 08:49:15;;;;;;;10.65;10.35;;;15.20;99.90;;;;;;5083206;28;20238;-85
2023/04/21 08:51:55;;;;;;;10.65;10.35;;;15.50;99.90;;;;;;5090890;28;20273;-85
2023/04/21 08:54:28;;;;;;;10.50;10.20;;;15.80;99.90;;;;;;5097832;28;20241;-85
2023/04/21 08:57:09;;;;;;;10.32;10.02;;;16.00;99.90;;;;;;5097382;28;20222;-85
2023/04/21 09:03:33;;;;;;;10.00;9.70;;;16.30;99.90;;;;;;5083844;28;20298;-86
2023/04/21 09:06:28;;;;;;;10.10;9.80;;;16.40;99.90;;;;;;5085836;28;20245;-85
2023/04/21 09:12:25;;;;;;;10.02;9.73;;;16.50;99.90;;;;;;5077653;28;20273;-84
2023/04/21 09:16:02;;;;;;;9.98;9.68;;;16.30;99.90;;;;;;5080582;28;20245;-85
2023/04/21 09:25:30;;;;;;;10.15;9.85;;;16.50;99.90;;;;;;5076183;28;20308;-85
2023/04/21 09:28:10;;;;;;;10.18;9.88;;;16.40;99.90;;;;;;5073976;28;20219;-85
2023/04/21 09:31:37;;;;;;;10.05;9.75;;;16.40;99.90;;;;;;5081871;28;20234;-85
2023/04/21 10:03:12;;;;;;;9.63;9.32;;;16.60;99.90;;;;;;5084049;28;20249;-86
2023/04/21 10:06:12;;;;;;;10.02;9.73;;;16.50;99.90;;;;;;5083415;28;20210;-85
2023/04/21 10:09:14;;;;;;;;;;;;;;;;;;;;;
2023/04/21 10:12:53;;;;;;;9.80;9.50;;;16.80;99.90;;;;;;5020612;28;20267;-86
2023/04/21 10:23:39;;;;;;;10.18;9.88;;;17.60;99.90;;;;;;5065561;28;20294;-85
2023/04/21 10:26:31;;;;;;;9.70;9.40;;;17.80;99.90;;;;;;5081200;28;20222;-85
2023/04/21 10:29:34;;;;;;;;;;;;;;;;;;;;;
2023/04/21 10:36:04;;;;;;;10.00;9.70;;;19.10;99.90;;;;;;5080009;28;20289;-86
2023/04/21 10:39:53;;;;;;;10.20;9.90;;;19.30;99.90;;;;;;5099911;28;20248;-86
2023/04/21 10:43:29;;;;;;;10.43;10.13;;;19.80;99.90;;;;;;5005722;28;20235;-86
2023/04/21 10:53:52;;;;;;;10.75;10.45;;;20.30;99.90;;;;;;5066566;28;20234;-86
2023/04/21 11:12:25;;;;;;;10.25;9.95;;;21.20;99.90;;;;;;5057738;28;20253;-86
2023/04/21 11:15:06;;;;;;;10.05;9.75;;;21.20;99.90;;;;;;4998874;28;20233;-86
2023/04/21 11:17:54;;;;;;;10.30;10.00;;;21.50;99.90;;;;;;5081312;28;20226;-86
2023/04/21 11:26:38;;;;;;;10.30;10.00;;;21.60;99.90;;;;;;5078248;28;20226;-85
2023/04/21 11:29:22;;;;;;;10.15;9.85;;;22.10;99.90;;;;;;5080530;28;20222;-85
2023/04/21 11:32:48;;;;;;;10.23;9.93;;;22.40;99.90;;;;;;5083348;28;20695;-85
2023/04/21 11:35:29;;;;;;;10.18;9.88;;;22.70;99.90;;;;;;5027082;28;20244;-85
2023/04/21 11:41:33;;;;;;;10.50;10.20;;;22.80;99.90;;;;;;5039807;28;20217;-85
2023/04/21 11:44:36;;;;;;;10.32;10.02;;;23.30;99.90;;;;;;5046346;28;20248;-85
2023/04/21 11:50:37;;;;;;;10.30;10.00;;;22.70;99.90;;;;;;5067114;22;20233;-80
2023/04/21 11:53:04;;;;;;;10.40;10.10;;;22.60;99.90;;;;;;5122129;27;20251;-80
2023/04/21 11:55:33;;;;;;;10.30;10.00;;;22.30;99.90;;;;;;5123722;28;20231;-79
2023/04/21 11:58:03;;;;;;;10.23;9.93;;;22.10;99.90;;;;;;5124033;28;20232;-79
2023/04/21 12:00:31;;;;;;;10.35;10.05;;;22.10;99.90;;;;;;5121727;27;20233;-79
2023/04/21 12:02:58;;;;;;;10.20;9.90;;;22.00;99.90;;;;;;5124579;28;20221;-81
2023/04/21 12:05:26;;;;;;;10.40;10.10;;;22.10;99.90;;;;;;5123711;27;20224;-79
2023/04/21 12:07:56;;;;;;;10.43;10.13;;;22.20;99.90;;;;;;5122530;28;20220;-79
2023/04/21 12:10:24;;;;;;;10.20;9.90;;;22.40;99.90;;;;;;5124158;27;20232;-79
2023/04/21 12:12:51;;;;;;;10.38;10.07;;;22.10;99.90;;;;;;5124535;27;20318;-79
2023/04/21 12:15:22;;;;;;;10.30;10.00;;;22.30;99.90;;;;;;5123608;28;21049;-79
2023/04/21 12:17:52;;;;;;;10.30;10.00;;;22.60;99.90;;;;;;5124395;27;20231;-79
2023/04/21 12:20:23;;;;;;;10.35;10.05;;;22.80;99.90;;;;;;5123896;27;20275;-79
2023/04/21 12:22:51;;;;;;;10.50;10.20;;;22.90;99.90;;;;;;5123199;28;20221;-79
2023/04/21 12:25:19;;;;;;;10.20;9.90;;;22.70;99.90;;;;;;5123440;27;20323;-79
2023/04/21 12:27:49;;;;;;;10.10;9.80;;;23.10;99.90;;;;;;5123422;28;20311;-79
2023/04/21 12:30:19;;;;;;;10.20;9.90;;;23.70;99.90;;;;;;5122605;28;20323;-79
2023/04/21 12:32:47;;;;;;;10.20;9.90;;;24.00;99.90;;;;;;5124005;28;20243;-79
2023/04/21 12:35:15;;;;;;;10.50;10.20;;;24.10;99.90;;;;;;5123619;28;20228;-80
2023/04/21 12:37:42;;;;;;;10.15;9.85;;;24.10;99.90;;;;;;5122949;28;20256;-79
2023/04/21 12:40:10;;;;;;;10.30;10.00;;;24.30;99.90;;;;;;5122812;27;20236;-79
2023/04/21 12:42:38;;;;;;;10.15;9.85;;;24.10;99.90;;;;;;5123592;28;20228;-79
2023/04/21 12:45:07;;;;;;;9.95;9.65;;;24.00;99.90;;;;;;5123958;28;20267;-79
2023/04/21 12:47:38;;;;;;;10.18;9.88;;;24.20;99.90;;;;;;5123422;28;20259;-80
2023/04/21 12:50:07;;;;;;;9.95;9.65;;;24.40;99.90;;;;;;5123116;28;20236;-79
2023/04/21 12:52:34;;;;;;;10.48;10.18;;;24.50;99.90;;;;;;5123081;28;20229;-79
2023/04/21 12:55:02;;;;;;;10.60;10.30;;;24.70;99.90;;;;;;5123103;28;20251;-79
2023/04/21 12:57:30;;;;;;;10.40;10.10;;;24.80;99.90;;;;;;5122699;28;20225;-79
2023/04/21 12:59:58;;;;;;;10.50;10.20;;;24.90;99.90;;;;;;5123218;28;20233;-79
2023/04/21 13:02:25;;;;;;;10.32;10.02;;;24.90;99.90;;;;;;5123106;28;20315;-79
2023/04/21 13:04:54;;;;;;;10.38;10.07;;;24.70;99.90;;;;;;5122236;27;20258;-79
2023/04/21 13:07:25;;;;;;;10.25;9.95;;;24.30;99.90;;;;;;5124014;27;20229;-79
2023/04/21 13:09:52;;;;;;;10.32;10.02;;;24.50;99.90;;;;;;5123068;28;20239;-79
2023/04/21 13:12:20;;;;;;;10.35;10.05;;;24.60;99.90;;;;;;5125635;27;20284;-80
2023/04/21 13:14:47;;;;;;;10.65;10.35;;;24.80;99.90;;;;;;5126947;27;20239;-79
2023/04/21 13:17:16;;;;;;;10.60;10.30;;;24.60;99.90;;;;;;5126793;27;20231;-80
2023/04/21 13:19:43;;;;;;;10.73;10.43;;;24.20;99.90;;;;;;5130003;28;20230;-80
2023/04/21 13:22:12;;;;;;;10.93;10.63;;;23.70;99.90;;;;;;5137288;28;20284;-79
2023/04/21 13:24:40;;;;;;;10.80;10.50;;;23.30;99.90;;;;;;5132578;28;20297;-80
2023/04/21 13:27:07;;;;;;;10.40;10.10;;;23.20;99.90;;;;;;5127584;28;20221;-80
2023/04/21 13:29:35;;;;;;;10.45;10.15;;;23.40;99.90;;;;;;5130459;28;20229;-80
2023/04/21 13:32:03;;;;;;;10.15;9.85;;;23.80;99.90;;;;;;5122073;28;20342;-80
2023/04/21 13:34:32;;;;;;;10.50;10.20;;;24.20;99.90;;;;;;5121790;28;20229;-80
2023/04/21 13:36:59;;;;;;;10.38;10.07;;;24.80;99.90;;;;;;5122173;28;20228;-80
2023/04/21 13:39:28;;;;;;;10.40;10.10;;;25.00;99.90;;;;;;5123195;27;20239;-80
2023/04/21 13:41:55;;;;;;;10.60;10.30;;;24.60;99.90;;;;;;5124558;28;20229;-80
2023/04/21 13:44:23;;;;;;;10.65;10.35;;;23.70;99.90;;;;;;5125746;28;20229;-80
2023/04/21 13:46:52;;;;;;;10.60;10.30;;;22.90;99.90;;;;;;5126662;28;20237;-79
2023/04/21 13:49:20;;;;;;;10.80;10.50;;;22.80;99.90;;;;;;5125291;28;20295;-80
2023/04/21 13:51:48;;;;;;;10.60;10.30;;;23.60;99.90;;;;;;5124387;27;20236;-80
2023/04/21 13:54:15;;;;;;;10.50;10.20;;;24.40;99.90;;;;;;5125032;28;20229;-80
2023/04/21 13:56:44;;;;;;;10.50;10.20;;;24.70;99.90;;;;;;5125385;28;20231;-80
2023/04/21 13:59:13;;;;;;;10.27;9.98;;;24.60;99.90;;;;;;5125727;28;20264;-80
2023/04/21 14:01:41;;;;;;;10.50;10.20;;;24.70;99.90;;;;;;5126068;28;20246;-80
2023/04/21 14:04:08;;;;;;;10.80;10.50;;;24.90;99.90;;;;;;5125310;28;20251;-79
2023/04/21 14:06:36;;;;;;;10.57;10.27;;;24.80;99.90;;;;;;5125304;28;20228;-80
2023/04/21 14:09:05;;;;;;;10.60;10.30;;;24.40;99.90;;;;;;5125092;28;20292;-80
2023/04/21 14:11:32;;;;;;;10.60;10.30;;;24.30;99.90;;;;;;5124326;28;20228;-80
2023/04/21 14:14:01;;;;;;;10.60;10.30;;;24.60;99.90;;;;;;5125994;27;20256;-80
2023/04/21 14:16:28;;;;;;;10.80;10.50;;;24.60;99.90;;;;;;5125662;28;20284;-80
2023/04/21 14:18:56;;;;;;;10.82;10.52;;;24.20;99.90;;;;;;5124907;27;20229;-80
2023/04/21 14:21:24;;;;;;;10.50;10.20;;;23.70;99.90;;;;;;5124539;28;20297;-80
2023/04/21 14:23:51;;;;;;;10.20;9.90;;;23.10;99.90;;;;;;5123854;27;20228;-80
2023/04/21 14:26:19;;;;;;;10.30;10.00;;;22.70;99.90;;;;;;5124867;28;20231;-80
2023/04/21 14:28:46;;;;;;;10.60;10.30;;;22.50;99.90;;;;;;5126678;27;20228;-80
2023/04/21 14:31:15;;;;;;;10.70;10.40;;;22.80;99.90;;;;;;5126200;27;20273;-80
2023/04/21 14:33:43;;;;;;;10.32;10.02;;;22.90;99.90;;;;;;5125973;28;20259;-79
2023/04/21 14:36:10;;;;;;;10.52;10.23;;;22.70;99.90;;;;;;5125335;28;20232;-79
2023/04/21 14:38:38;;;;;;;10.50;10.20;;;22.80;99.90;;;;;;5124568;28;20296;-79
2023/04/21 14:41:05;;;;;;;10.40;10.10;;;23.20;99.90;;;;;;5124728;28;20506;-79
2023/04/21 14:43:33;;;;;;;10.63;10.32;;;23.40;99.90;;;;;;5124564;28;20237;-79
2023/04/21 14:46:00;;;;;;;10.23;9.93;;;23.50;99.90;;;;;;5124790;28;20323;-79
2023/04/21 14:48:29;;;;;;;10.18;9.88;;;23.90;99.90;;;;;;5125198;27;20227;-79
2023/04/21 14:50:57;;;;;;;10.10;9.80;;;24.30;99.90;;;;;;5123726;28;20221;-80
2023/04/21 14:53:25;;;;;;;10.18;9.88;;;24.50;99.90;;;;;;5124855;27;20221;-79
2023/04/21 14:55:53;;;;;;;10.43;10.13;;;24.30;99.90;;;;;;5124909;28;20239;-79
2023/04/21 14:58:20;;;;;;;10.60;10.30;;;24.30;99.90;;;;;;5123837;28;20729;-79
2023/04/21 15:00:48;;;;;;;10.20;9.90;;;24.50;99.90;;;;;;5124607;27;20233;-79
2023/04/21 15:03:15;;;;;;;10.32;10.02;;;24.80;99.90;;;;;;5125723;27;20236;-79
2023/04/21 15:05:44;;;;;;;10.27;9.98;;;24.50;99.90;;;;;;5125892;27;20229;-79
2023/04/21 15:08:14;;;;;;;10.32;10.02;;;24.40;99.90;;;;;;5125256;27;20248;-80
2023/04/21 15:10:42;;;;;;;10.38;10.07;;;24.20;99.90;;;;;;5124175;28;20227;-79
2023/04/21 15:13:09;;;;;;;10.50;10.20;;;24.30;99.90;;;;;;5124395;28;20233;-80
2023/04/21 15:15:36;;;;;;;10.75;10.45;;;24.00;99.90;;;;;;5124280;28;20232;-79
2023/04/21 15:18:04;;;;;;;10.40;10.10;;;23.80;99.90;;;;;;5124046;28;20288;-79
2023/04/21 15:20:32;;;;;;;10.43;10.13;;;24.00;99.90;;;;;;5124258;28;20232;-79
2023/04/21 15:23:01;;;;;;;10.40;10.10;;;24.20;99.90;;;;;;5120488;27;20237;-79
2023/04/21 15:25:29;;;;;;;10.60;10.30;;;24.30;99.90;;;;;;5122708;27;20231;-79
2023/04/21 15:27:56;;;;;;;10.40;10.10;;;23.90;99.90;;;;;;5124053;28;20233;-81
2023/04/21 15:30:23;;;;;;;10.50;10.20;;;23.70;99.90;;;;;;5124197;27;20231;-80
2023/04/21 15:32:51;;;;;;;10.60;10.30;;;23.80;99.90;;;;;;5124231;28;20224;-80
2023/04/21 15:35:19;;;;;;;10.50;10.20;;;23.70;99.90;;;;;;5124395;27;20233;-80
2023/04/21 15:37:46;;;;;;;10.65;10.35;;;23.70;99.90;;;;;;5136152;28;20231;-80
2023/04/21 15:40:16;;;;;;;10.65;10.35;;;24.00;99.90;;;;;;5129751;28;20229;-81